LiveATC.Net - Listen to live air traffic control over the Internet!


ICAO: KARB  IATA: ARB   Airport: Ann Arbor Municipal Airport
City: Ann Arbor   State/Province: Michigan
Country: United States   Continent: North America
KARB METAR Weather: KARB 190053Z AUTO 12004KT 10SM CLR 17/13 A3019 RMK AO2 SLP221 T01720133
KARB Flight Activity (FlightAware)
KARB Airport Info   (iFlightPlanner)
KARB VFR Sectional Chart   (iFlightPlanner) 
KARB IFR Low Chart   (iFlightPlanner) 

KARB Gnd/Twr
Feed Status: UP   Listeners: 0
Listen in your browser - HTML5 player (in browser, HTML5)
Click here to listen with your own player (launches your MP3 player)
KARB Gnd/Twr Audio Archives
FacilityFrequency
Ann Arbor Ground121.600
Ann Arbor Tower120.300
Feed sponsored by: iFlightPlanner and LiveATC.net

NOTICE

Unauthorized use prohibited. See LiveATC.net Terms of Service


Airport/ARTCC Code
Frequency Search
(e.g., 124.400, 128.75)
Site-wide search
 


Browse LiveATC Feeds
Top 50 LiveATC Feeds
LiveATC Feed Map
Bad Weather Areas

LiveATC FAQ
Offer LiveATC feed
Contact LiveATC.net
Press Inquiries

LiveATC on iPhone
LiveATC on Android

Windows Phone
Windows 8/10

LiveATC Mobile
(Mobile browser)

ATC Audio Archives
Interesting Recordings

LiveATC Forums


Home Page
About LiveATC.net
Make a Donation
Terms of Use
Privacy Policy

Canadian Air Freqs

AIRMETs/SIGMETs

FAA Airport Status
Nat'l Airspace Status
Arrival Demand Charts


Server Software By:
Icecast.org
Liquidsoap